Skip Navigation Links Skip Navigation Links

Current Weather

Benson, United Kingdom

For information only: do not use for flight planning or navigation.
Latest weather
Observation time Wednesday, November 25, 2020 1:50 AM GMT
Local time Wednesday, November 25, 2020 3:10 AM GMT
Flight conditions Marginal Visual Meteorological Conditions
Winds
Wind direction South-Southeast (160°)
Wind speed 14 mph
Visibility 6.2 mi.
Sky condition
Ceiling 1,100 ft. broken clouds
Cloud layer broken clouds 1,100 ft.
Cloud layer scattered clouds 2,900 ft.
Cloud layer broken clouds 3,400 ft.
Temperature 50°F
Dewpoint 48°F
Altimeter 29.80 in.Hg
Derived measurements
Relative humidity 94%
Wind chill 45°F
Density altitude -228 ft.
Remarks
Fully automated report.
METAR EGUB 250150Z AUTO 16012KT 9999 // BKN011/// SCT029/// BKN034/// 10/09 Q1009

Settings

Location code

InnerDrive.Weather 4.0.6770.0 Release CLR 4.0.30319.42000
Copyright ©2018 Inner Drive Technology. All rights reserved. Portions Copyright ©1986-2018 David Braverman.

Find weather

Site navigation


Skip Navigation Links

Place info

Page info

PayPal - The safer, easier way to pay online!

Return home.

Copyright ©2020 Inner Drive Technology. Purveyors of fine, hand-crafted computer software. Page printed 2020-11-25T03:10:24 UTC.